createdAt,value
2023-10-29T00:01:07.551Z,152501.38
2023-10-29T00:03:38.224Z,152523.34
2023-10-29T00:06:10.067Z,152488.44
2023-10-29T00:08:40.395Z,152461.22
2023-10-29T00:11:15.908Z,152491.00
2023-10-29T00:13:46.160Z,152502.66
2023-10-29T00:16:16.434Z,152502.66
2023-10-29T00:18:46.786Z,152502.66
2023-10-29T00:21:17.258Z,152497.50
2023-10-29T00:23:47.656Z,152476.81
2023-10-29T00:26:20.594Z,152469.06
2023-10-29T00:28:53.535Z,152478.09
2023-10-29T00:31:25.373Z,152474.22
2023-10-29T00:33:56.226Z,152422.47
2023-10-29T00:36:26.531Z,152418.59
2023-10-29T00:38:56.847Z,152410.81
2023-10-29T00:41:30.061Z,152414.72
2023-10-29T00:44:00.892Z,152405.66
2023-10-29T00:46:31.594Z,152397.94
2023-10-29T00:49:04.111Z,152365.59
2023-10-29T00:51:34.550Z,152375.94
2023-10-29T00:54:05.079Z,152366.88
2023-10-29T00:56:38.452Z,152353.97
2023-10-29T00:59:13.301Z,152346.22
2023-10-29T01:01:46.062Z,152335.88
2023-10-29T01:04:16.625Z,152342.31
2023-10-29T01:06:49.038Z,152351.38
2023-10-29T01:09:19.833Z,152366.88
2023-10-29T01:11:52.698Z,152390.16
2023-10-29T01:14:23.090Z,152395.31
2023-10-29T01:16:53.368Z,152391.44
2023-10-29T01:19:23.578Z,152395.31
2023-10-29T01:21:54.064Z,152399.22
2023-10-29T01:24:24.256Z,152404.38
2023-10-29T01:26:57.281Z,152408.25
2023-10-29T01:29:27.941Z,152410.81
2023-10-29T01:31:58.226Z,152426.31
2023-10-29T01:34:28.570Z,152466.38
2023-10-29T01:36:59.014Z,152498.78
2023-10-29T01:39:29.420Z,152507.84
2023-10-29T01:42:02.575Z,152536.28
2023-10-29T01:44:32.812Z,152531.13
2023-10-29T01:47:03.386Z,152493.63
2023-10-29T01:49:33.584Z,152506.56
2023-10-29T01:52:04.971Z,152549.19
2023-10-29T01:54:35.219Z,152550.47
2023-10-29T01:57:08.722Z,152559.53
2023-10-29T01:59:43.089Z,152550.47
2023-10-29T02:02:13.740Z,152586.72
2023-10-29T02:04:44.305Z,152560.88
2023-10-29T02:07:14.559Z,152569.88
2023-10-29T02:09:45.234Z,152577.66
2023-10-29T02:12:18.784Z,152556.97
2023-10-29T02:14:49.537Z,152549.19
2023-10-29T02:17:19.937Z,152566.03
2023-10-29T02:19:50.190Z,152537.56
2023-10-29T02:22:23.328Z,152520.75
2023-10-29T02:24:53.783Z,152531.13
2023-10-29T02:27:24.042Z,152532.41
2023-10-29T02:29:55.982Z,152524.63
2023-10-29T02:32:26.269Z,152545.31
2023-10-29T02:34:56.649Z,152525.91
2023-10-29T02:37:29.654Z,152515.56
2023-10-29T02:39:59.969Z,152514.28
2023-10-29T02:42:30.294Z,152513.00
2023-10-29T02:45:00.651Z,152518.19
2023-10-29T02:47:31.090Z,152564.69
2023-10-29T02:50:01.361Z,152533.69
2023-10-29T02:52:35.265Z,152562.16
2023-10-29T02:55:06.093Z,152537.56
2023-10-29T02:57:36.425Z,152544.03
2023-10-29T03:00:07.835Z,152556.97
2023-10-29T03:02:38.338Z,152581.53
2023-10-29T03:05:13.532Z,152584.09
2023-10-29T03:07:46.558Z,152566.03
2023-10-29T03:10:17.076Z,152577.66
2023-10-29T03:12:47.510Z,152599.63
2023-10-29T03:15:21.089Z,152585.44
2023-10-29T03:17:54.395Z,152613.84
2023-10-29T03:20:24.693Z,152593.16
2023-10-29T03:22:57.880Z,152603.50
2023-10-29T03:25:28.250Z,152606.13
2023-10-29T03:27:58.823Z,152595.78
2023-10-29T03:30:30.126Z,152581.53
2023-10-29T03:33:00.875Z,152578.94
2023-10-29T03:35:34.629Z,152568.59
2023-10-29T03:38:07.516Z,152577.66
2023-10-29T03:40:38.381Z,152577.66
2023-10-29T03:43:08.639Z,152581.53
2023-10-29T03:45:39.704Z,152567.31
2023-10-29T03:48:10.410Z,152576.38
2023-10-29T03:50:40.952Z,152584.09
2023-10-29T03:53:13.927Z,152571.19
2023-10-29T03:55:44.187Z,152577.66
2023-10-29T03:58:14.953Z,152578.94
2023-10-29T04:00:46.772Z,152591.88
2023-10-29T04:03:17.177Z,152591.88
2023-10-29T04:05:47.686Z,152602.22
2023-10-29T04:08:20.984Z,152593.16
2023-10-29T04:10:51.720Z,152582.81
2023-10-29T04:13:23.302Z,152589.28
2023-10-29T04:15:53.848Z,152598.34
2023-10-29T04:18:26.395Z,152624.19
2023-10-29T04:20:56.698Z,152639.75
2023-10-29T04:23:29.696Z,152637.13
2023-10-29T04:26:00.139Z,152634.53
2023-10-29T04:28:30.833Z,152642.31
2023-10-29T04:31:01.729Z,152639.75
2023-10-29T04:33:32.247Z,152642.31
2023-10-29T04:36:02.663Z,152657.81
2023-10-29T04:38:38.484Z,152652.66
2023-10-29T04:41:09.021Z,152650.09
2023-10-29T04:43:39.326Z,152660.44
2023-10-29T04:46:11.795Z,152655.25
2023-10-29T04:48:42.617Z,152652.66
2023-10-29T04:51:13.053Z,152656.53
2023-10-29T04:53:45.936Z,152642.31
2023-10-29T04:56:16.330Z,152635.84
2023-10-29T04:58:46.625Z,152637.13
2023-10-29T05:01:19.392Z,152642.31
2023-10-29T05:03:49.958Z,152648.75
2023-10-29T05:06:23.721Z,152633.25
2023-10-29T05:08:59.570Z,152653.94
2023-10-29T05:11:29.917Z,152630.69
2023-10-29T05:14:00.216Z,152628.06
2023-10-29T05:16:33.464Z,152639.75
2023-10-29T05:19:04.028Z,152635.84
2023-10-29T05:21:34.309Z,152639.75
2023-10-29T05:24:09.340Z,152647.47
2023-10-29T05:26:39.897Z,152659.09
2023-10-29T05:29:10.467Z,152682.41
2023-10-29T05:31:40.723Z,152686.28
2023-10-29T05:34:11.177Z,152697.91
2023-10-29T05:36:42.221Z,152706.97
2023-10-29T05:39:16.107Z,152714.75
2023-10-29T05:41:46.753Z,152740.63
2023-10-29T05:44:17.231Z,152744.53
2023-10-29T05:46:47.471Z,152788.50
2023-10-29T05:49:17.911Z,152787.19
2023-10-29T05:51:48.299Z,152789.78
2023-10-29T05:54:21.661Z,152797.53
2023-10-29T05:56:51.948Z,152810.50
2023-10-29T05:59:22.235Z,152797.53
2023-10-29T06:01:52.812Z,152841.53
2023-10-29T06:04:24.431Z,152851.88
2023-10-29T06:06:55.036Z,152850.59
2023-10-29T06:09:29.641Z,152858.38
2023-10-29T06:12:00.470Z,152860.94
2023-10-29T06:14:30.872Z,152882.97
2023-10-29T06:17:12.237Z,152899.78
2023-10-29T06:19:53.948Z,152932.16
2023-10-29T06:22:24.489Z,152952.91
2023-10-29T06:24:57.755Z,152971.06
2023-10-29T06:27:28.335Z,152996.94
2023-10-29T06:29:58.857Z,152989.16
2023-10-29T06:32:29.095Z,153013.75
2023-10-29T06:34:59.497Z,153033.16
2023-10-29T06:37:29.795Z,153052.59
2023-10-29T06:40:04.768Z,153079.81
2023-10-29T06:42:35.287Z,153103.09
2023-10-29T06:45:06.475Z,153101.81
2023-10-29T06:47:36.827Z,153109.59
2023-10-29T06:50:07.884Z,153148.41
2023-10-29T06:52:38.874Z,153183.38
2023-10-29T06:55:13.853Z,153208.00
2023-10-29T06:57:44.225Z,153214.50
2023-10-29T07:00:15.494Z,153246.88
2023-10-29T07:02:46.225Z,153242.97
2023-10-29T07:05:17.116Z,153255.94
2023-10-29T07:07:47.577Z,153285.75
2023-10-29T07:10:20.845Z,153335.00
2023-10-29T07:12:51.160Z,153335.00
2023-10-29T07:15:22.121Z,153366.13
2023-10-29T07:17:52.934Z,153384.28
2023-10-29T07:20:23.442Z,153414.09
2023-10-29T07:22:53.688Z,153446.53
2023-10-29T07:25:26.802Z,153468.53
2023-10-29T07:27:57.014Z,153491.88
2023-10-29T07:30:27.578Z,153547.63
2023-10-29T07:32:57.885Z,153558.00
2023-10-29T07:35:28.278Z,153595.63
2023-10-29T07:37:58.523Z,153624.09
2023-10-29T07:40:31.754Z,153698.03
2023-10-29T07:43:02.206Z,153717.56
2023-10-29T07:45:32.802Z,153748.72
2023-10-29T07:48:03.974Z,153753.91
2023-10-29T07:50:34.541Z,153803.22
2023-10-29T07:53:04.769Z,153818.78
2023-10-29T07:55:37.702Z,153870.66
2023-10-29T07:58:08.206Z,153883.66
2023-10-29T08:00:41.521Z,153936.91
2023-10-29T08:03:12.174Z,153980.97
2023-10-29T08:05:44.552Z,154001.78
2023-10-29T08:08:17.352Z,154039.47
2023-10-29T08:10:50.392Z,154074.50
2023-10-29T08:13:20.612Z,154075.84
2023-10-29T08:15:51.075Z,154114.75
2023-10-29T08:18:21.467Z,154100.47
2023-10-29T08:20:54.499Z,154147.25
2023-10-29T08:23:24.757Z,154161.53
2023-10-29T08:25:57.716Z,154179.69
2023-10-29T08:28:29.339Z,154209.56
2023-10-29T08:30:59.870Z,154225.19
2023-10-29T08:33:30.984Z,154264.13
2023-10-29T08:36:01.415Z,154297.91
2023-10-29T08:38:34.541Z,154330.47
2023-10-29T08:41:16.694Z,154348.63
2023-10-29T08:43:47.195Z,154408.44
2023-10-29T08:46:17.636Z,154403.22
2023-10-29T08:48:48.038Z,154431.81
2023-10-29T08:51:18.629Z,154465.63
2023-10-29T08:53:48.971Z,154492.94
2023-10-29T08:56:21.863Z,154547.53
2023-10-29T08:58:52.107Z,154535.81
2023-10-29T09:01:22.286Z,154577.44
2023-10-29T09:03:52.711Z,154593.09
2023-10-29T09:06:23.182Z,154593.09
2023-10-29T09:08:53.498Z,154619.06
2023-10-29T09:11:26.730Z,154624.28
2023-10-29T09:13:56.975Z,154645.06
2023-10-29T09:16:27.272Z,154639.88
2023-10-29T09:18:57.491Z,154686.72
2023-10-29T09:21:28.542Z,154714.00
2023-10-29T09:23:58.906Z,154746.53
2023-10-29T09:26:33.142Z,154776.47
2023-10-29T09:29:06.387Z,154749.13
2023-10-29T09:31:36.635Z,154767.34
2023-10-29T09:34:08.012Z,154825.91
2023-10-29T09:36:38.472Z,154858.44
2023-10-29T09:39:09.961Z,154836.31
2023-10-29T09:41:47.210Z,154888.38
2023-10-29T09:44:21.481Z,154920.91
2023-10-29T09:47:01.316Z,154937.81
2023-10-29T09:49:31.513Z,154972.94
2023-10-29T09:52:01.871Z,154974.25
2023-10-29T09:54:32.260Z,154988.56
2023-10-29T09:57:05.237Z,154980.78
2023-10-29T09:59:36.323Z,154949.50
2023-10-29T10:02:07.226Z,154931.31
2023-10-29T10:04:40.534Z,154953.44
2023-10-29T10:07:11.456Z,155031.53
2023-10-29T10:09:54.751Z,155048.44
2023-10-29T10:12:28.274Z,155061.47
2023-10-29T10:15:07.728Z,155056.25
2023-10-29T10:17:38.094Z,155114.91
2023-10-29T10:20:12.605Z,155134.44
2023-10-29T10:22:44.678Z,155157.84
2023-10-29T10:25:22.782Z,155170.88
2023-10-29T10:27:56.893Z,155150.06
2023-10-29T10:30:35.253Z,155168.25
2023-10-29T10:33:13.746Z,155177.38
2023-10-29T10:35:45.613Z,155178.66
2023-10-29T10:38:16.363Z,155207.31
2023-10-29T10:40:46.642Z,155215.16
2023-10-29T10:43:23.448Z,155238.56
2023-10-29T10:45:55.044Z,155273.78
2023-10-29T10:48:25.687Z,155247.69
2023-10-29T10:50:58.291Z,155252.91
2023-10-29T10:53:29.544Z,155276.34
2023-10-29T10:56:04.111Z,155269.84
2023-10-29T10:58:39.103Z,155295.91
2023-10-29T11:01:10.618Z,155324.56
2023-10-29T11:03:41.200Z,155327.19
2023-10-29T11:06:12.487Z,155344.16
2023-10-29T11:08:44.515Z,155375.41
2023-10-29T11:11:15.788Z,155394.94
2023-10-29T11:13:48.642Z,155392.31
2023-10-29T11:16:26.578Z,155371.47
2023-10-29T11:18:56.869Z,155418.41
2023-10-29T11:21:36.839Z,155423.63
2023-10-29T11:24:23.578Z,155437.97
2023-10-29T11:26:53.825Z,155434.03
2023-10-29T11:29:50.505Z,155474.44
2023-10-29T11:32:38.761Z,155437.97
2023-10-29T11:35:22.298Z,155441.81
2023-10-29T11:37:55.772Z,155456.16
2023-10-29T11:40:33.073Z,155444.47
2023-10-29T11:43:20.360Z,155477.00
2023-10-29T11:46:06.005Z,155493.97
2023-10-29T11:48:36.369Z,155500.47
2023-10-29T11:51:30.816Z,155500.47
2023-10-29T11:54:06.426Z,155512.19
2023-10-29T11:56:38.432Z,155526.53
2023-10-29T11:59:09.793Z,155521.31
2023-10-29T12:01:42.648Z,155517.41
2023-10-29T12:04:13.557Z,155516.09
2023-10-29T12:06:45.134Z,155542.16
2023-10-29T12:09:22.959Z,155533.09
2023-10-29T12:11:54.095Z,155546.09
2023-10-29T12:14:40.141Z,155539.59
2023-10-29T12:17:14.517Z,155505.69
2023-10-29T12:19:46.696Z,155479.63
2023-10-29T12:22:22.862Z,155499.19
2023-10-29T12:24:57.338Z,155509.59
2023-10-29T12:27:28.354Z,155520.03
2023-10-29T12:29:58.738Z,155510.91
2023-10-29T12:32:31.732Z,155531.75
2023-10-29T12:35:02.450Z,155521.31
2023-10-29T12:37:34.282Z,155503.09
2023-10-29T12:40:04.958Z,155526.53
2023-10-29T12:42:53.689Z,155491.34
2023-10-29T12:45:28.738Z,155512.19
2023-10-29T12:48:16.765Z,155508.31
2023-10-29T12:50:51.577Z,155491.34
2023-10-29T12:53:25.822Z,155464.00
2023-10-29T12:55:56.524Z,155467.94
2023-10-29T12:58:27.566Z,155462.72
2023-10-29T13:00:59.784Z,155448.38
2023-10-29T13:03:32.909Z,155436.63
2023-10-29T13:06:03.212Z,155436.63
2023-10-29T13:08:33.477Z,155428.84
2023-10-29T13:11:04.328Z,155430.13
2023-10-29T13:13:36.540Z,155470.50
2023-10-29T13:16:07.616Z,155490.06
2023-10-29T13:18:40.598Z,155503.09
2023-10-29T13:21:13.853Z,155520.03
2023-10-29T13:23:44.245Z,155483.56
2023-10-29T13:26:14.582Z,155483.56
2023-10-29T13:28:45.918Z,155492.69
2023-10-29T13:31:18.492Z,155462.72
2023-10-29T13:33:51.380Z,155441.81
2023-10-29T13:36:22.817Z,155410.56
2023-10-29T13:38:53.125Z,155417.06
2023-10-29T13:41:24.347Z,155389.75
2023-10-29T13:43:54.600Z,155361.06
2023-10-29T13:46:24.911Z,155342.81
2023-10-29T13:48:58.488Z,155327.19
2023-10-29T13:51:28.658Z,155291.97
2023-10-29T13:53:58.884Z,155272.44
2023-10-29T13:56:29.727Z,155288.06
2023-10-29T13:58:59.988Z,155271.16
2023-10-29T14:01:30.229Z,155259.44
2023-10-29T14:04:03.164Z,155246.41
2023-10-29T14:06:34.667Z,155233.34
2023-10-29T14:09:05.487Z,155202.13
2023-10-29T14:11:36.397Z,155207.31
2023-10-29T14:14:08.110Z,155204.75
2023-10-29T14:16:40.580Z,155182.59
2023-10-29T14:19:13.540Z,155222.94
2023-10-29T14:21:43.762Z,155232.06
2023-10-29T14:24:14.032Z,155195.63
2023-10-29T14:26:44.329Z,155173.47
2023-10-29T14:29:14.757Z,155202.13
2023-10-29T14:31:45.207Z,155178.66
2023-10-29T14:34:18.246Z,155174.78
2023-10-29T14:36:48.466Z,155176.09
2023-10-29T14:39:18.783Z,155196.91
2023-10-29T14:41:52.960Z,155172.16
2023-10-29T14:44:23.395Z,155176.09
2023-10-29T14:46:53.737Z,155123.97
2023-10-29T14:49:27.173Z,155104.50
2023-10-29T14:51:57.527Z,155097.94
2023-10-29T14:54:27.837Z,155092.69
2023-10-29T14:56:58.192Z,155060.19
2023-10-29T14:59:28.387Z,155006.81
2023-10-29T15:02:00.035Z,155006.81
2023-10-29T15:04:37.204Z,154993.75
2023-10-29T15:07:07.788Z,154956.06
2023-10-29T15:09:42.265Z,154922.22
2023-10-29T15:12:13.739Z,154918.28
2023-10-29T15:14:48.553Z,154875.34
2023-10-29T15:17:21.172Z,154864.94
2023-10-29T15:19:59.984Z,154848.00
2023-10-29T15:22:30.731Z,154834.97
2023-10-29T15:25:00.929Z,154829.75
2023-10-29T15:27:31.270Z,154799.84
2023-10-29T15:30:01.833Z,154754.31
2023-10-29T15:32:32.148Z,154736.09
2023-10-29T15:35:06.116Z,154715.28
2023-10-29T15:37:36.403Z,154707.50
2023-10-29T15:40:07.068Z,154671.06
2023-10-29T15:42:37.289Z,154662.00
2023-10-29T15:45:08.328Z,154662.00
2023-10-29T15:47:38.624Z,154650.28
2023-10-29T15:50:14.044Z,154621.66
2023-10-29T15:52:44.517Z,154590.41
2023-10-29T15:55:15.361Z,154567.00
2023-10-29T15:57:45.723Z,154560.50
2023-10-29T16:00:17.204Z,154541.00
2023-10-29T16:02:47.469Z,154544.91
2023-10-29T16:05:21.211Z,154534.50
2023-10-29T16:07:52.141Z,154513.72
2023-10-29T16:10:25.024Z,154499.41
2023-10-29T16:12:55.645Z,154512.38
2023-10-29T16:15:28.358Z,154499.41
2023-10-29T16:18:01.166Z,154490.31
2023-10-29T16:20:48.662Z,154483.81
2023-10-29T16:23:20.847Z,154483.81
2023-10-29T16:25:56.560Z,154452.59
2023-10-29T16:28:31.109Z,154433.09
2023-10-29T16:31:04.761Z,154431.81
2023-10-29T16:33:45.351Z,154465.63
2023-10-29T16:36:20.225Z,154429.25
2023-10-29T16:38:50.555Z,154390.25
2023-10-29T16:41:21.097Z,154374.66
2023-10-29T16:43:51.857Z,154347.34
2023-10-29T16:46:22.366Z,154316.19
2023-10-29T16:48:52.623Z,154294.00
2023-10-29T16:51:25.944Z,154290.16
2023-10-29T16:53:57.586Z,154307.03
2023-10-29T16:56:28.096Z,154283.63
2023-10-29T16:58:59.503Z,154314.84
2023-10-29T17:01:29.852Z,154296.63
2023-10-29T17:04:00.210Z,154294.00
2023-10-29T17:06:33.387Z,154288.81
2023-10-29T17:09:04.087Z,154279.75
2023-10-29T17:11:34.327Z,154283.63
2023-10-29T17:14:06.403Z,154265.47
2023-10-29T17:16:36.695Z,154255.06
2023-10-29T17:19:10.592Z,154242.06
2023-10-29T17:21:45.578Z,154252.47
2023-10-29T17:24:16.022Z,154238.16
2023-10-29T17:26:46.639Z,154239.44
2023-10-29T17:29:18.747Z,154226.50
2023-10-29T17:31:54.683Z,154245.97
2023-10-29T17:34:25.092Z,154249.88
2023-10-29T17:37:19.043Z,154249.88
2023-10-29T17:39:57.669Z,154229.06
2023-10-29T17:42:32.614Z,154213.47
2023-10-29T17:45:11.318Z,154220.00
2023-10-29T17:47:50.109Z,154203.09
2023-10-29T17:50:33.173Z,154179.69
2023-10-29T17:53:15.051Z,154166.75
2023-10-29T17:55:46.880Z,154161.53
2023-10-29T17:58:27.497Z,154147.25
2023-10-29T18:01:06.511Z,154153.72
2023-10-29T18:03:47.520Z,154147.25
2023-10-29T18:06:29.678Z,154134.25
2023-10-29T18:09:02.754Z,154114.75
2023-10-29T18:11:35.887Z,154105.72
2023-10-29T18:14:06.190Z,154117.38
2023-10-29T18:16:42.430Z,154121.28
2023-10-29T18:19:15.984Z,154114.75
2023-10-29T18:21:48.518Z,154119.97
2023-10-29T18:24:25.026Z,154119.97
2023-10-29T18:26:57.257Z,154112.19
2023-10-29T18:29:31.273Z,154117.38
2023-10-29T18:32:06.529Z,154143.34
2023-10-29T18:34:41.839Z,154127.78
2023-10-29T18:37:17.344Z,154127.78
2023-10-29T18:39:54.845Z,154134.25
2023-10-29T18:42:25.561Z,154125.16
2023-10-29T18:44:56.152Z,154117.38
2023-10-29T18:47:26.910Z,154117.38
2023-10-29T18:49:59.214Z,154101.81
2023-10-29T18:52:29.729Z,154096.63
2023-10-29T18:55:06.695Z,154109.56
2023-10-29T18:57:40.420Z,154109.56
2023-10-29T19:00:15.590Z,154101.81
2023-10-29T19:02:49.893Z,154119.97
2023-10-29T19:05:23.406Z,154116.09
2023-10-29T19:07:56.533Z,154095.28
2023-10-29T19:10:29.651Z,154105.72
2023-10-29T19:12:59.954Z,154101.81
2023-10-29T19:15:30.874Z,154116.09
2023-10-29T19:18:02.813Z,154116.09
2023-10-29T19:20:41.146Z,154126.47
2023-10-29T19:23:12.398Z,154119.97
2023-10-29T19:25:46.549Z,154139.44
2023-10-29T19:28:17.919Z,154116.09
2023-10-29T19:31:05.086Z,154118.66
2023-10-29T19:33:43.766Z,154109.56
2023-10-29T19:36:17.310Z,154107.00
2023-10-29T19:38:47.958Z,154097.91
2023-10-29T19:41:23.247Z,154101.81
2023-10-29T19:43:54.410Z,154109.56
2023-10-29T19:46:32.442Z,154077.13
2023-10-29T19:49:05.588Z,154064.13
2023-10-29T19:51:36.202Z,154057.66
2023-10-29T19:54:09.454Z,154056.38
2023-10-29T19:56:43.115Z,154082.34
2023-10-29T19:59:13.553Z,154058.94
2023-10-29T20:01:44.110Z,154052.47
2023-10-29T20:04:18.090Z,154055.03
2023-10-29T20:06:48.355Z,154051.19
2023-10-29T20:09:19.216Z,154065.41
2023-10-29T20:11:54.028Z,154044.66
2023-10-29T20:14:26.568Z,154043.38
2023-10-29T20:16:57.449Z,154065.41
2023-10-29T20:19:28.717Z,154047.28
2023-10-29T20:22:01.724Z,154060.22
2023-10-29T20:24:33.384Z,154074.50
2023-10-29T20:27:06.768Z,154097.91
2023-10-29T20:29:38.739Z,154092.72
2023-10-29T20:32:10.532Z,154095.28
2023-10-29T20:34:42.290Z,154049.84
2023-10-29T20:37:13.395Z,154060.22
2023-10-29T20:39:44.031Z,154031.69
2023-10-29T20:42:23.379Z,154033.00
2023-10-29T20:44:54.908Z,154019.94
2023-10-29T20:47:25.805Z,154027.78
2023-10-29T20:49:56.223Z,154033.00
2023-10-29T20:52:27.308Z,154005.66
2023-10-29T20:54:57.724Z,154001.78
2023-10-29T20:57:34.530Z,154023.88
2023-10-29T21:00:16.800Z,154035.56
2023-10-29T21:02:47.397Z,154066.75
2023-10-29T21:05:18.326Z,154052.47
2023-10-29T21:07:48.912Z,154064.13
2023-10-29T21:10:19.770Z,154090.09
2023-10-29T21:12:54.804Z,154083.63
2023-10-29T21:15:29.361Z,154070.63
2023-10-29T21:18:00.257Z,154060.22
2023-10-29T21:20:32.636Z,154060.22
2023-10-29T21:23:02.893Z,154064.13
2023-10-29T21:25:34.201Z,154055.03
2023-10-29T21:28:07.573Z,154038.19
2023-10-29T21:30:42.142Z,154025.19
2023-10-29T21:33:12.624Z,154036.91
2023-10-29T21:35:42.960Z,154022.59
2023-10-29T21:38:13.237Z,154006.97
2023-10-29T21:40:43.674Z,154016.03
2023-10-29T21:43:16.976Z,154013.47
2023-10-29T21:45:48.678Z,153995.28
2023-10-29T21:48:19.047Z,153993.97
2023-10-29T21:50:57.829Z,153992.69
2023-10-29T21:53:28.578Z,153990.06
2023-10-29T21:55:59.605Z,153973.22
2023-10-29T21:58:32.445Z,153958.94
2023-10-29T22:01:03.539Z,153955.03
2023-10-29T22:03:35.343Z,153948.56
2023-10-29T22:06:07.747Z,153930.38
2023-10-29T22:08:38.275Z,153918.72
2023-10-29T22:11:09.882Z,153908.31
2023-10-29T22:13:43.316Z,153896.63
2023-10-29T22:16:15.758Z,153909.59
2023-10-29T22:18:46.281Z,153899.22
2023-10-29T22:21:16.985Z,153892.75
2023-10-29T22:23:47.346Z,153879.75
2023-10-29T22:26:17.527Z,153862.91
2023-10-29T22:28:50.812Z,153870.66
2023-10-29T22:31:21.104Z,153914.81
2023-10-29T22:33:51.977Z,153930.38
2023-10-29T22:36:22.305Z,153927.78
2023-10-29T22:38:52.542Z,153947.28
2023-10-29T22:41:23.278Z,153961.50
2023-10-29T22:43:56.204Z,153978.41
2023-10-29T22:46:27.355Z,153996.59
2023-10-29T22:48:57.584Z,154003.06
2023-10-29T22:51:28.100Z,154000.47
2023-10-29T22:53:58.326Z,154025.19
2023-10-29T22:56:28.812Z,154009.56
2023-10-29T22:59:02.319Z,153999.19
2023-10-29T23:01:32.861Z,153986.19
2023-10-29T23:04:03.265Z,153984.88
2023-10-29T23:06:33.822Z,154006.97
2023-10-29T23:09:04.315Z,154000.47
2023-10-29T23:11:34.764Z,153995.28
2023-10-29T23:14:07.813Z,154013.47
2023-10-29T23:16:38.482Z,154030.38
2023-10-29T23:19:08.937Z,154022.59
2023-10-29T23:21:39.159Z,153993.97
2023-10-29T23:24:10.742Z,153982.31
2023-10-29T23:26:41.006Z,153987.50
2023-10-29T23:29:13.965Z,153987.50
2023-10-29T23:31:44.531Z,153995.28
2023-10-29T23:34:15.440Z,153991.41
2023-10-29T23:36:45.710Z,153997.88
2023-10-29T23:39:16.238Z,153965.41
2023-10-29T23:41:46.535Z,154005.66
2023-10-29T23:44:20.063Z,154030.38
2023-10-29T23:46:50.261Z,154008.28
2023-10-29T23:49:20.970Z,154000.47
2023-10-29T23:51:51.545Z,153992.69
2023-10-29T23:54:21.950Z,154014.75
2023-10-29T23:56:52.197Z,153980.97
2023-10-29T23:59:25.102Z,153991.41
